Gould, Oklahoma
Current Conditions -  °F | °C
As of 10:15 PM on Tuesday 21 Oct 2014 (Local Time) from KAXS Reporting Station
Clear Clear  
Wind Chill: 19°   Ceiling: Unl
Heat Index: 19°   Visibility: 10mi
Dew Point: 11°   Wind: 7mph
Humidity: 60%   Direction: 130°SE
Pressure: 30.07"   Gusts: NA
Location:  34.67°N, 99.77°W
Report Text: KAXS 220315Z AUTO 13006KT 10SM CLR 19/11 A3007 RMK AO2 T01870108
Loading
Personal Weather Stations






























Interactive Weather Map
Tropical Storm Tracking
New forecast layout! Learn more

10-Day Weather Forecast

Advertisements
Track Severe Weather on mobile